Time;durP1;ratioP1;P1;durP2;ratioP2;P2;SDS_P1;SDS_P2;PMS_P1;PMS_P2;Temp;Humidity;BMP_temperature;BMP_pressure;BME280_temperature;BME280_humidity;BME280_pressure;Samples;Min_cycle;Max_cycle;Signal;HPM_P1;HPM_P2
2022/12/19 00:02:05;;;;;;;32.28;21.33;;;0.90;99.90;;;;;;4928210;29;20044;-83
2022/12/19 00:04:32;;;;;;;32.75;22.23;;;0.90;99.90;;;;;;4944027;29;20036;-82
2022/12/19 00:06:58;;;;;;;36.05;24.73;;;1.00;99.90;;;;;;4944814;29;20043;-83
2022/12/19 00:09:24;;;;;;;35.97;21.77;;;1.00;99.90;;;;;;4945918;29;20387;-83
2022/12/19 00:11:50;;;;;;;38.67;22.30;;;1.00;99.90;;;;;;4942497;29;20127;-82
2022/12/19 00:14:16;;;;;;;37.47;23.63;;;1.00;99.90;;;;;;4942106;29;20095;-83
2022/12/19 00:16:42;;;;;;;33.90;21.92;;;1.10;99.90;;;;;;4945174;29;20322;-82
2022/12/19 00:19:09;;;;;;;35.80;23.55;;;1.10;99.90;;;;;;4943445;29;20311;-83
2022/12/19 00:21:36;;;;;;;34.70;22.38;;;1.10;99.90;;;;;;4947876;29;20108;-83
2022/12/19 00:24:03;;;;;;;41.53;22.90;;;1.00;99.90;;;;;;4948994;29;20039;-82
2022/12/19 00:26:31;;;;;;;30.20;22.02;;;1.10;99.90;;;;;;4945269;29;20032;-83
2022/12/19 00:28:59;;;;;;;35.25;23.17;;;1.10;99.90;;;;;;4947217;29;20055;-83
2022/12/19 00:31:26;;;;;;;35.08;23.80;;;1.10;99.90;;;;;;4931101;29;20059;-83
2022/12/19 00:33:53;;;;;;;35.50;23.85;;;1.10;99.90;;;;;;4935754;29;20035;-83
2022/12/19 00:36:24;;;;;;;30.02;20.55;;;1.20;99.90;;;;;;4933388;29;20044;-83
2022/12/19 00:38:52;;;;;;;33.47;22.80;;;1.20;99.90;;;;;;4967171;28;20039;-83
2022/12/19 00:41:23;;;;;;;34.92;22.98;;;1.20;99.90;;;;;;4933246;29;20044;-83
2022/12/19 00:43:56;;;;;;;32.83;22.80;;;1.10;99.90;;;;;;4939468;29;20038;-83
2022/12/19 00:46:22;;;;;;;32.97;22.63;;;1.30;99.90;;;;;;4948643;29;20050;-82
2022/12/19 00:48:48;;;;;;;35.28;23.60;;;1.20;99.90;;;;;;4932270;29;20103;-83
2022/12/19 00:51:16;;;;;;;32.40;22.02;;;1.20;99.90;;;;;;4934155;29;20482;-83
2022/12/19 00:53:46;;;;;;;33.83;22.02;;;1.30;99.90;;;;;;4936585;29;20031;-83
2022/12/19 00:56:18;;;;;;;33.22;22.63;;;1.30;99.90;;;;;;4929415;29;20047;-82
2022/12/19 00:58:44;;;;;;;30.17;21.35;;;1.40;99.90;;;;;;4931650;29;20434;-82
2022/12/19 01:01:19;;;;;;;33.70;22.38;;;1.40;99.90;;;;;;4937383;29;20059;-83
2022/12/19 01:03:46;;;;;;;34.60;21.98;;;1.40;99.90;;;;;;4951235;29;20040;-83
2022/12/19 01:06:12;;;;;;;32.65;22.73;;;1.40;99.90;;;;;;4947646;29;20067;-83
2022/12/19 01:08:37;;;;;;;33.53;22.98;;;1.40;99.90;;;;;;4933013;29;20035;-83
2022/12/19 01:11:04;;;;;;;34.40;23.17;;;1.50;99.90;;;;;;4948299;29;20343;-82
2022/12/19 01:13:31;;;;;;;37.25;23.77;;;1.50;99.90;;;;;;4948337;29;20065;-82
2022/12/19 01:16:02;;;;;;;32.78;22.05;;;1.50;99.90;;;;;;4927724;29;20043;-83
2022/12/19 01:18:28;;;;;;;33.38;21.27;;;1.50;99.90;;;;;;4947841;29;20055;-83
2022/12/19 01:20:54;;;;;;;32.70;22.42;;;1.50;99.90;;;;;;4931032;29;20040;-83
2022/12/19 01:23:20;;;;;;;30.77;21.17;;;2.60;99.90;;;;;;4944439;29;20123;-83
2022/12/19 01:25:51;;;;;;;29.08;20.98;;;1.50;99.90;;;;;;4929317;29;20071;-83
2022/12/19 01:28:17;;;;;;;30.90;20.25;;;1.60;99.90;;;;;;4926818;29;20035;-82
2022/12/19 01:30:42;;;;;;;34.30;22.33;;;1.60;99.90;;;;;;4945674;29;20079;-83
2022/12/19 01:33:11;;;;;;;30.60;21.17;;;1.60;99.90;;;;;;4947406;29;20054;-83
2022/12/19 01:35:37;;;;;;;31.95;21.55;;;1.60;99.90;;;;;;4932151;29;20036;-83
2022/12/19 01:38:02;;;;;;;30.48;21.48;;;1.70;99.90;;;;;;4935238;29;20046;-82
2022/12/19 01:40:28;;;;;;;30.25;20.83;;;1.70;99.90;;;;;;4927918;29;20044;-83
2022/12/19 01:42:54;;;;;;;31.98;21.88;;;1.70;99.90;;;;;;4931687;29;20042;-82
2022/12/19 01:45:25;;;;;;;30.85;21.02;;;1.70;99.90;;;;;;4931120;29;20063;-83
2022/12/19 01:48:13;;;;;;;33.28;21.77;;;1.70;99.90;;;;;;4932648;29;20036;-83
2022/12/19 01:51:12;;;;;;;35.97;22.80;;;1.70;99.90;;;;;;4944163;29;20111;-82
2022/12/19 01:53:44;;;;;;;31.42;20.23;;;1.70;99.90;;;;;;4925260;29;20044;-82
2022/12/19 01:56:11;;;;;;;30.77;20.95;;;2.10;99.90;;;;;;4928828;29;20126;-82
2022/12/19 01:58:45;;;;;;;32.30;21.35;;;1.80;99.90;;;;;;4947523;29;20082;-83
2022/12/19 02:01:12;;;;;;;34.53;22.17;;;1.70;99.90;;;;;;4928559;29;20039;-82
2022/12/19 02:03:38;;;;;;;31.52;21.42;;;1.80;99.90;;;;;;4929091;29;20044;-83
2022/12/19 02:06:05;;;;;;;34.63;23.40;;;1.80;99.90;;;;;;4929175;29;20043;-82
2022/12/19 02:08:31;;;;;;;31.50;21.95;;;1.80;99.90;;;;;;4931907;29;20051;-82
2022/12/19 02:10:57;;;;;;;30.77;21.30;;;1.80;99.90;;;;;;4930905;29;20103;-82
2022/12/19 02:13:23;;;;;;;36.88;22.38;;;1.80;99.90;;;;;;4947021;29;20063;-83
2022/12/19 02:16:11;;;;;;;34.58;23.05;;;1.70;99.90;;;;;;4948963;29;20060;-83
2022/12/19 02:18:43;;;;;;;36.22;22.55;;;1.80;99.90;;;;;;4948726;29;20047;-82
2022/12/19 02:21:13;;;;;;;37.33;23.83;;;1.70;99.90;;;;;;4928846;29;20051;-82
2022/12/19 02:23:47;;;;;;;38.33;24.20;;;1.80;99.90;;;;;;4925764;29;20045;-83
2022/12/19 02:26:50;;;;;;;40.13;25.02;;;1.80;99.90;;;;;;4928754;29;20181;-83
2022/12/19 02:29:42;;;;;;;45.38;26.38;;;1.80;99.90;;;;;;4945606;29;20081;-82
2022/12/19 02:32:40;;;;;;;47.50;26.42;;;1.80;99.90;;;;;;4944752;29;20107;-83
2022/12/19 02:35:41;;;;;;;42.30;25.65;;;1.80;99.90;;;;;;4946737;29;20067;-83
2022/12/19 02:38:27;;;;;;;46.33;27.30;;;1.70;99.90;;;;;;4946462;29;20061;-82
2022/12/19 02:41:21;;;;;;;48.55;27.63;;;1.70;99.90;;;;;;4929032;29;20065;-83
2022/12/19 02:43:49;;;;;;;47.75;28.73;;;1.70;99.90;;;;;;4942640;29;20052;-82
2022/12/19 02:46:17;;;;;;;47.50;28.48;;;1.70;99.90;;;;;;4928957;29;20033;-82
2022/12/19 02:48:43;;;;;;;57.13;29.55;;;1.70;99.90;;;;;;4934472;29;20043;-82
2022/12/19 02:51:08;;;;;;;50.40;28.58;;;1.70;99.90;;;;;;4943247;29;20046;-82
2022/12/19 02:53:36;;;;;;;52.63;30.38;;;1.70;99.90;;;;;;4927108;29;20031;-83
2022/12/19 02:56:21;;;;;;;58.22;31.58;;;1.70;99.90;;;;;;4930052;29;20043;-83
2022/12/19 02:58:57;;;;;;;59.70;30.98;;;1.70;99.90;;;;;;4942657;29;20067;-83
2022/12/19 03:01:53;;;;;;;50.97;29.73;;;1.80;99.90;;;;;;4941611;29;20044;-82
2022/12/19 03:04:31;;;;;;;54.22;30.08;;;1.70;99.90;;;;;;4929385;29;20044;-82
2022/12/19 03:07:21;;;;;;;66.97;33.30;;;1.80;99.90;;;;;;4929219;29;20071;-83
2022/12/19 03:09:59;;;;;;;56.65;31.75;;;1.80;99.90;;;;;;4929022;29;20074;-83
2022/12/19 03:12:35;;;;;;;59.83;33.97;;;1.90;99.90;;;;;;4943630;29;20043;-83
2022/12/19 03:15:01;;;;;;;61.42;34.10;;;1.90;99.90;;;;;;4925749;29;20043;-83
2022/12/19 03:17:28;;;;;;;62.53;35.60;;;1.90;99.90;;;;;;4926957;29;20098;-83
2022/12/19 03:19:54;;;;;;;63.33;35.28;;;1.90;99.90;;;;;;4925866;29;20052;-82
2022/12/19 03:22:20;;;;;;;66.40;35.60;;;2.00;99.90;;;;;;4940876;29;20051;-82
2022/12/19 03:24:46;;;;;;;65.50;35.03;;;1.90;99.90;;;;;;4938783;29;20099;-82
2022/12/19 03:27:38;;;;;;;64.22;35.97;;;2.00;99.90;;;;;;4924889;29;20402;-83
2022/12/19 03:30:06;;;;;;;66.18;35.47;;;2.00;99.90;;;;;;4921301;29;20056;-83
2022/12/19 03:32:33;;;;;;;64.45;34.55;;;2.10;99.90;;;;;;4926091;29;20541;-83
2022/12/19 03:35:07;;;;;;;59.55;34.92;;;2.10;99.90;;;;;;4939720;29;20120;-82
2022/12/19 03:37:37;;;;;;;64.80;35.85;;;3.10;99.90;;;;;;4925486;29;20099;-83
2022/12/19 03:40:14;;;;;;;68.53;37.65;;;2.20;99.90;;;;;;4925194;29;20067;-83
2022/12/19 03:45:54;;;;;;;70.05;38.70;;;2.30;99.90;;;;;;4944118;29;20526;-84
2022/12/19 03:48:42;;;;;;;68.05;37.92;;;2.30;99.90;;;;;;4927580;29;20043;-83
2022/12/19 03:51:13;;;;;;;78.80;40.38;;;2.30;99.90;;;;;;4943129;29;20040;-83
2022/12/19 03:53:57;;;;;;;66.03;35.95;;;2.30;99.90;;;;;;4929233;29;20044;-83
2022/12/19 03:56:44;;;;;;;70.13;39.60;;;2.30;99.90;;;;;;4931416;29;20057;-83
2022/12/19 03:59:16;;;;;;;72.53;40.58;;;2.40;99.90;;;;;;4941226;29;20035;-83
2022/12/19 04:01:42;;;;;;;66.65;39.15;;;2.50;99.90;;;;;;4942624;29;20063;-83
2022/12/19 04:04:09;;;;;;;70.45;39.05;;;2.40;99.90;;;;;;4942456;29;20048;-83
2022/12/19 04:06:36;;;;;;;68.18;39.13;;;2.40;99.90;;;;;;4939625;29;20130;-83
2022/12/19 04:09:02;;;;;;;72.05;41.00;;;2.50;99.90;;;;;;4926541;29;20035;-83
2022/12/19 04:11:34;;;;;;;71.57;39.90;;;2.40;99.90;;;;;;4926806;29;20043;-83
2022/12/19 04:14:04;;;;;;;64.28;38.03;;;2.50;99.90;;;;;;4943704;29;20127;-82
2022/12/19 04:16:33;;;;;;;73.32;41.22;;;2.50;99.90;;;;;;4929375;29;20078;-82
2022/12/19 04:19:09;;;;;;;72.55;42.88;;;2.60;99.90;;;;;;4941583;29;20088;-82
2022/12/19 04:21:42;;;;;;;73.28;40.25;;;2.50;99.90;;;;;;4939645;29;20044;-83
2022/12/19 04:24:15;;;;;;;71.50;40.47;;;2.60;99.90;;;;;;4926565;29;20960;-83
2022/12/19 04:26:43;;;;;;;74.07;41.10;;;2.70;99.90;;;;;;4925822;29;20036;-82
2022/12/19 04:29:11;;;;;;;66.00;39.05;;;2.70;99.90;;;;;;4937426;29;20071;-83
2022/12/19 04:31:37;;;;;;;73.22;40.88;;;2.70;99.90;;;;;;4924003;29;20422;-82
2022/12/19 04:34:02;;;;;;;73.38;40.60;;;2.70;99.90;;;;;;4942380;29;20131;-82
2022/12/19 04:36:28;;;;;;;65.35;39.38;;;2.70;99.90;;;;;;4928652;29;20070;-82
2022/12/19 04:38:54;;;;;;;63.72;38.35;;;2.70;99.90;;;;;;4941603;29;20450;-83
2022/12/19 04:41:19;;;;;;;70.32;39.53;;;2.70;99.90;;;;;;4925181;29;20040;-82
2022/12/19 04:43:45;;;;;;;67.18;39.05;;;2.70;99.90;;;;;;4935521;29;20058;-82
2022/12/19 04:46:10;;;;;;;69.90;38.83;;;2.70;99.90;;;;;;4942030;29;20309;-83
2022/12/19 04:48:36;;;;;;;68.10;38.88;;;2.70;99.90;;;;;;4937257;29;20041;-83
2022/12/19 04:51:02;;;;;;;58.13;35.35;;;2.70;99.90;;;;;;4937243;29;20852;-82
2022/12/19 04:53:28;;;;;;;61.92;37.60;;;2.80;99.90;;;;;;4921411;29;20044;-83
2022/12/19 04:56:05;;;;;;;56.40;33.95;;;2.80;99.90;;;;;;4920910;29;20050;-84
2022/12/19 04:58:31;;;;;;;65.28;36.83;;;2.90;99.90;;;;;;4917093;29;20047;-84
2022/12/19 05:01:01;;;;;;;61.13;36.25;;;2.90;99.90;;;;;;4910207;29;20043;-85
2022/12/19 05:03:27;;;;;;;69.65;38.70;;;3.30;99.90;;;;;;4929520;29;20076;-84
2022/12/19 05:05:52;;;;;;;71.93;37.10;;;2.90;99.90;;;;;;4930574;29;20074;-85
2022/12/19 05:08:18;;;;;;;62.42;38.10;;;2.90;99.90;;;;;;4932203;29;20050;-84
2022/12/19 05:10:43;;;;;;;62.53;35.10;;;2.90;99.90;;;;;;4919281;29;20127;-84
2022/12/19 05:13:09;;;;;;;61.55;36.33;;;2.90;99.90;;;;;;4918078;29;20044;-82
2022/12/19 05:15:35;;;;;;;66.97;36.40;;;3.00;99.90;;;;;;4929692;29;20043;-85
2022/12/19 05:18:01;;;;;;;64.60;37.17;;;2.90;99.90;;;;;;4915571;29;20043;-83
2022/12/19 05:20:26;;;;;;;69.07;37.35;;;3.00;99.90;;;;;;4931404;29;20091;-83
2022/12/19 05:22:52;;;;;;;66.75;37.58;;;3.00;99.90;;;;;;4928218;29;20131;-83
2022/12/19 05:25:18;;;;;;;65.10;35.95;;;3.00;99.90;;;;;;4927633;29;20047;-82
2022/12/19 05:27:43;;;;;;;67.38;37.25;;;3.10;99.90;;;;;;4915829;29;20044;-83
2022/12/19 05:30:12;;;;;;;63.30;37.15;;;3.10;99.90;;;;;;4926307;29;20043;-84
2022/12/19 05:32:38;;;;;;;65.90;36.78;;;3.10;99.90;;;;;;4930285;29;20040;-82
2022/12/19 05:35:04;;;;;;;61.33;33.53;;;3.20;99.90;;;;;;4924390;29;20086;-83
2022/12/19 05:37:29;;;;;;;61.53;36.25;;;3.30;99.90;;;;;;4912477;29;20462;-84
2022/12/19 05:39:55;;;;;;;60.90;35.20;;;3.30;99.90;;;;;;4928881;29;20051;-83
2022/12/19 05:42:21;;;;;;;59.65;34.15;;;3.20;99.90;;;;;;4927757;29;20051;-83
2022/12/19 05:44:46;;;;;;;56.55;32.40;;;3.30;99.90;;;;;;4929462;29;20055;-83
2022/12/19 05:47:12;;;;;;;55.58;32.55;;;3.30;99.90;;;;;;4912132;29;20115;-83
2022/12/19 05:49:38;;;;;;;60.05;34.03;;;3.30;99.90;;;;;;4932422;29;20031;-81
2022/12/19 05:52:04;;;;;;;49.72;29.88;;;3.40;99.90;;;;;;4929966;29;20039;-82
2022/12/19 05:54:29;;;;;;;58.13;31.58;;;3.40;99.90;;;;;;4918354;29;20107;-83
2022/12/19 05:56:55;;;;;;;51.42;29.40;;;3.50;99.90;;;;;;4917180;29;20063;-84
2022/12/19 05:59:20;;;;;;;48.28;27.48;;;3.50;99.90;;;;;;4932188;29;20095;-84
2022/12/19 06:01:46;;;;;;;46.63;28.13;;;3.60;99.90;;;;;;4924062;29;20067;-81
2022/12/19 06:04:11;;;;;;;45.03;26.85;;;3.70;99.90;;;;;;4927994;29;20147;-83
2022/12/19 06:06:37;;;;;;;44.30;27.48;;;3.70;99.90;;;;;;4927287;29;20036;-83
2022/12/19 06:09:03;;;;;;;46.42;27.55;;;3.80;99.90;;;;;;4913645;29;20040;-83
2022/12/19 06:11:28;;;;;;;42.08;26.38;;;3.80;99.90;;;;;;4932157;29;20031;-85
2022/12/19 06:13:54;;;;;;;46.50;27.75;;;3.80;99.90;;;;;;4914522;29;20189;-84
2022/12/19 06:16:21;;;;;;;35.88;23.63;;;3.90;99.90;;;;;;4927576;29;20138;-82
2022/12/19 06:18:47;;;;;;;38.50;24.38;;;3.90;99.90;;;;;;4947507;28;20043;-81
2022/12/19 06:21:14;;;;;;;43.55;26.63;;;3.90;99.90;;;;;;4931719;29;20185;-82
2022/12/19 06:23:40;;;;;;;42.92;26.65;;;3.90;99.90;;;;;;4928962;29;20040;-82
2022/12/19 06:26:06;;;;;;;43.05;27.48;;;3.90;99.90;;;;;;4913758;29;20126;-82
2022/12/19 06:29:18;;;;;;;;;;;;;;;;;;;;;
2022/12/19 06:32:59;;;;;;;38.70;24.35;;;4.30;99.90;;;;;;4935017;29;20050;-83
2022/12/19 06:36:20;;;;;;;36.80;23.75;;;4.10;99.90;;;;;;4893720;29;20472;-84
2022/12/19 06:38:46;;;;;;;34.65;23.77;;;4.00;99.90;;;;;;4874302;29;20450;-85
2022/12/19 06:44:00;;;;;;;30.80;20.90;;;4.10;99.90;;;;;;4931081;29;20410;-82
2022/12/19 06:46:26;;;;;;;29.70;21.63;;;4.10;99.90;;;;;;4911254;29;20048;-80
2022/12/19 06:48:51;;;;;;;32.70;21.92;;;4.10;99.90;;;;;;4941662;28;20087;-82
2022/12/19 06:51:17;;;;;;;31.98;21.42;;;4.10;99.90;;;;;;4928279;29;20119;-80
2022/12/19 06:53:43;;;;;;;32.03;21.33;;;4.10;99.90;;;;;;4910203;29;20440;-80
2022/12/19 06:56:12;;;;;;;33.33;22.02;;;4.10;99.90;;;;;;4929901;29;20052;-82
2022/12/19 06:58:37;;;;;;;33.80;21.30;;;4.20;99.90;;;;;;4928932;29;20075;-83
2022/12/19 07:01:03;;;;;;;27.80;20.77;;;4.20;99.90;;;;;;4916929;29;20103;-80
2022/12/19 07:03:38;;;;;;;34.20;22.67;;;4.20;99.90;;;;;;4929032;29;20044;-84
2022/12/19 07:06:05;;;;;;;33.25;23.25;;;4.20;99.90;;;;;;4928744;29;20043;-80
2022/12/19 07:08:31;;;;;;;29.38;21.73;;;4.20;99.90;;;;;;4925562;29;20047;-82
2022/12/19 07:10:57;;;;;;;37.55;23.95;;;4.30;99.90;;;;;;4932075;29;20042;-83
2022/12/19 07:13:24;;;;;;;30.98;21.73;;;4.30;99.90;;;;;;4930842;28;20039;-84
2022/12/19 07:15:51;;;;;;;29.55;22.13;;;4.30;99.90;;;;;;4920444;29;20043;-82
2022/12/19 07:18:17;;;;;;;29.98;22.05;;;4.30;99.90;;;;;;4935552;29;20071;-85
2022/12/19 07:20:43;;;;;;;32.30;22.15;;;4.30;99.90;;;;;;4916432;29;20043;-82
2022/12/19 07:23:13;;;;;;;34.40;22.10;;;4.30;99.90;;;;;;4939929;28;20047;-82
2022/12/19 07:25:39;;;;;;;34.72;21.90;;;4.30;99.90;;;;;;4909449;29;20751;-82
2022/12/19 07:28:06;;;;;;;31.10;22.25;;;4.40;99.90;;;;;;4927502;29;20049;-82
2022/12/19 07:30:32;;;;;;;32.38;21.92;;;4.40;99.90;;;;;;4925826;29;20044;-83
2022/12/19 07:32:57;;;;;;;32.20;21.92;;;4.40;99.90;;;;;;4945291;28;20048;-83
2022/12/19 07:35:23;;;;;;;30.73;21.15;;;4.40;99.90;;;;;;4911494;29;20067;-83
2022/12/19 07:37:49;;;;;;;33.15;22.02;;;4.40;99.90;;;;;;4928039;29;20048;-82
2022/12/19 07:40:15;;;;;;;26.48;19.80;;;4.40;99.90;;;;;;4928052;29;20434;-82
2022/12/19 07:42:41;;;;;;;33.55;22.38;;;4.40;99.90;;;;;;4914052;29;20044;-82
2022/12/19 07:45:08;;;;;;;32.20;22.73;;;4.40;99.90;;;;;;4926659;29;20763;-82
2022/12/19 07:47:34;;;;;;;33.08;22.95;;;4.50;99.90;;;;;;4929849;29;20083;-84
2022/12/19 07:50:00;;;;;;;31.85;22.73;;;4.60;99.90;;;;;;4927871;29;20039;-82
2022/12/19 07:52:26;;;;;;;31.00;21.77;;;4.50;99.90;;;;;;4942571;28;20052;-84
2022/12/19 07:54:51;;;;;;;33.63;21.70;;;4.50;99.90;;;;;;4911543;29;20058;-83
2022/12/19 07:57:17;;;;;;;30.17;20.70;;;4.50;99.90;;;;;;4913265;29;20039;-82
2022/12/19 07:59:42;;;;;;;33.75;21.60;;;4.60;99.90;;;;;;4927526;29;20043;-82
2022/12/19 08:02:11;;;;;;;27.42;19.98;;;4.60;99.90;;;;;;4910924;29;20095;-81
2022/12/19 08:04:37;;;;;;;34.65;21.80;;;4.60;99.90;;;;;;4923755;29;20039;-81
2022/12/19 08:07:03;;;;;;;33.63;21.90;;;4.70;99.90;;;;;;4927859;29;20098;-82
2022/12/19 08:09:29;;;;;;;35.63;23.20;;;4.70;99.90;;;;;;4928199;29;20491;-81
2022/12/19 08:11:54;;;;;;;28.60;20.92;;;4.60;99.90;;;;;;4912225;29;20039;-82
2022/12/19 08:14:20;;;;;;;34.30;22.40;;;4.70;99.90;;;;;;4912497;29;20050;-82
2022/12/19 08:16:46;;;;;;;32.95;22.50;;;4.80;99.90;;;;;;4925630;29;20149;-82
2022/12/19 08:19:11;;;;;;;26.42;20.40;;;4.80;99.90;;;;;;4924843;29;20044;-81
2022/12/19 08:21:37;;;;;;;35.10;22.92;;;4.80;99.90;;;;;;4921604;29;20526;-84
2022/12/19 08:24:03;;;;;;;32.78;20.95;;;4.80;99.90;;;;;;4904161;29;20047;-82
2022/12/19 08:26:29;;;;;;;32.55;21.90;;;4.80;99.90;;;;;;4924771;29;20027;-84
2022/12/19 08:28:57;;;;;;;24.23;18.45;;;4.90;99.90;;;;;;4925669;29;20040;-82
2022/12/19 08:31:25;;;;;;;28.20;19.40;;;4.90;99.90;;;;;;4909716;29;20055;-81
2022/12/19 08:33:52;;;;;;;30.70;21.27;;;5.00;99.90;;;;;;4910153;29;20036;-83
2022/12/19 08:36:19;;;;;;;29.02;20.48;;;5.00;99.90;;;;;;4925228;29;21677;-82
2022/12/19 08:38:45;;;;;;;22.20;17.95;;;5.10;99.90;;;;;;4924505;29;20051;-82
2022/12/19 08:41:11;;;;;;;27.52;20.83;;;5.10;99.90;;;;;;4925298;29;20146;-84
2022/12/19 08:43:39;;;;;;;27.75;21.15;;;5.20;99.90;;;;;;4923780;29;20539;-84
2022/12/19 08:46:06;;;;;;;27.35;20.75;;;5.20;99.90;;;;;;4910525;29;20054;-81
2022/12/19 08:48:32;;;;;;;25.52;19.38;;;5.20;99.90;;;;;;4925702;29;20081;-82
2022/12/19 08:51:00;;;;;;;27.58;19.70;;;5.20;99.90;;;;;;4911270;29;20040;-82
2022/12/19 08:53:27;;;;;;;31.90;21.05;;;5.30;99.90;;;;;;4925607;29;20051;-82
2022/12/19 08:55:55;;;;;;;27.20;19.25;;;5.30;99.90;;;;;;4925066;29;20054;-82
2022/12/19 08:58:22;;;;;;;28.08;20.38;;;5.40;99.90;;;;;;4907691;29;20054;-81
2022/12/19 09:00:47;;;;;;;25.77;19.75;;;5.30;99.90;;;;;;4910909;29;20510;-82
2022/12/19 09:03:13;;;;;;;26.10;20.20;;;5.40;99.90;;;;;;4926594;29;20042;-82
2022/12/19 09:05:39;;;;;;;23.98;19.27;;;5.40;99.90;;;;;;4923181;29;20039;-84
2022/12/19 09:08:05;;;;;;;28.17;20.77;;;5.60;99.90;;;;;;4911236;29;20040;-82
2022/12/19 09:10:34;;;;;;;25.55;19.10;;;5.60;99.90;;;;;;4924940;29;20051;-82
2022/12/19 09:12:59;;;;;;;28.65;22.17;;;5.60;99.90;;;;;;4926376;29;20058;-82
2022/12/19 09:15:25;;;;;;;23.90;19.25;;;5.60;99.90;;;;;;4940923;28;20405;-84
2022/12/19 09:17:51;;;;;;;26.92;19.95;;;5.60;99.90;;;;;;4912327;29;20973;-81
2022/12/19 09:20:16;;;;;;;27.70;22.42;;;5.70;99.90;;;;;;4911441;29;20043;-84
2022/12/19 09:22:42;;;;;;;29.25;21.75;;;5.80;99.90;;;;;;4909781;29;20098;-84
2022/12/19 09:25:08;;;;;;;27.20;21.00;;;5.80;99.90;;;;;;4925749;29;20039;-83
2022/12/19 09:27:33;;;;;;;34.17;23.77;;;5.90;99.90;;;;;;4910188;29;20035;-83
2022/12/19 09:29:59;;;;;;;31.13;23.05;;;6.00;99.90;;;;;;4928659;29;20042;-83
2022/12/19 09:32:25;;;;;;;31.83;24.77;;;6.00;99.90;;;;;;4926524;29;20130;-83
2022/12/19 09:34:51;;;;;;;30.23;22.60;;;6.00;99.90;;;;;;4924965;29;20126;-82
2022/12/19 09:37:17;;;;;;;27.75;21.38;;;6.00;99.90;;;;;;4907617;29;20163;-83
2022/12/19 09:39:46;;;;;;;29.30;21.55;;;6.10;99.90;;;;;;4924565;29;20047;-84
2022/12/19 09:42:15;;;;;;;30.65;23.67;;;6.10;99.90;;;;;;4942930;28;20128;-82
2022/12/19 09:44:49;;;;;;;26.90;21.58;;;6.20;99.90;;;;;;4910624;29;20048;-82
2022/12/19 09:47:22;;;;;;;28.17;21.80;;;6.10;99.90;;;;;;4927712;29;21723;-82
2022/12/19 09:49:48;;;;;;;34.15;23.05;;;6.20;99.90;;;;;;4912135;29;20075;-82
2022/12/19 09:52:32;;;;;;;34.85;24.77;;;6.30;99.90;;;;;;4911915;29;20056;-83
2022/12/19 09:55:06;;;;;;;27.92;21.08;;;6.30;99.90;;;;;;4926046;29;20062;-82
2022/12/19 09:57:40;;;;;;;31.15;22.70;;;6.60;99.90;;;;;;4939674;28;20071;-84
2022/12/19 10:00:11;;;;;;;30.65;22.67;;;6.40;99.90;;;;;;4924654;29;20044;-82
2022/12/19 10:02:42;;;;;;;29.42;21.90;;;6.40;99.90;;;;;;4913579;29;20036;-83
2022/12/19 10:05:14;;;;;;;26.42;22.05;;;6.50;99.90;;;;;;4923293;29;20052;-85
2022/12/19 10:07:39;;;;;;;28.05;22.05;;;6.50;99.90;;;;;;4925812;29;20119;-81
2022/12/19 10:10:05;;;;;;;24.83;19.77;;;6.60;99.90;;;;;;4925897;29;20088;-85
2022/12/19 10:13:01;;;;;;;26.77;20.33;;;6.60;99.90;;;;;;4911187;29;20050;-84
2022/12/19 10:15:53;;;;;;;22.25;17.23;;;6.60;99.90;;;;;;4909121;29;20052;-83
2022/12/19 10:18:44;;;;;;;25.20;19.75;;;6.70;99.90;;;;;;4925805;29;20111;-84
2022/12/19 10:21:29;;;;;;;22.63;17.48;;;6.70;99.90;;;;;;4926098;29;20102;-84
2022/12/19 10:24:09;;;;;;;22.90;19.38;;;6.80;99.90;;;;;;4926765;29;20059;-82
2022/12/19 10:26:43;;;;;;;23.98;19.45;;;6.80;99.90;;;;;;4926460;29;21893;-84
2022/12/19 10:29:46;;;;;;;21.55;16.65;;;6.80;99.90;;;;;;4913202;29;20032;-81
2022/12/19 10:32:41;;;;;;;24.02;18.67;;;6.80;99.90;;;;;;4911473;29;20082;-83
2022/12/19 10:35:13;;;;;;;22.25;18.15;;;6.90;99.90;;;;;;4916642;29;20059;-82
2022/12/19 10:37:54;;;;;;;23.40;18.77;;;6.90;99.90;;;;;;4931575;29;20031;-82
2022/12/19 10:40:33;;;;;;;20.45;16.25;;;6.90;99.90;;;;;;4931395;29;20056;-81
2022/12/19 10:43:04;;;;;;;19.90;17.13;;;6.90;99.90;;;;;;4925260;29;20043;-82
2022/12/19 10:45:36;;;;;;;23.58;19.05;;;7.00;99.90;;;;;;4909619;29;20167;-82
2022/12/19 10:48:03;;;;;;;23.10;17.52;;;6.90;99.90;;;;;;4924990;28;20062;-84
2022/12/19 10:50:29;;;;;;;21.73;17.55;;;7.00;99.90;;;;;;4909798;29;20040;-82
2022/12/19 10:53:06;;;;;;;24.25;16.65;;;7.00;99.90;;;;;;4924810;29;20044;-83
2022/12/19 10:55:34;;;;;;;18.85;15.70;;;7.00;99.90;;;;;;4908917;29;20068;-85
2022/12/19 10:58:31;;;;;;;21.13;15.68;;;7.10;99.90;;;;;;4941295;28;20059;-84
2022/12/19 11:00:57;;;;;;;;;;;7.10;99.90;;;;;;4925538;29;20071;-84
2022/12/19 11:03:27;;;;;;;16.40;14.40;;;7.20;99.90;;;;;;4920553;29;19927;-81
2022/12/19 11:06:43;;;;;;;16.77;14.57;;;7.20;99.90;;;;;;4921230;29;20058;-82
2022/12/19 11:09:58;;;;;;;19.20;15.57;;;7.20;99.90;;;;;;4908939;29;20067;-83
2022/12/19 11:12:59;;;;;;;20.10;15.48;;;7.30;99.90;;;;;;4922073;29;20051;-82
2022/12/19 11:15:25;;;;;;;17.17;14.07;;;7.60;99.90;;;;;;4909027;29;20047;-83
2022/12/19 11:17:50;;;;;;;19.17;14.75;;;7.30;99.90;;;;;;4926177;29;20052;-82
2022/12/19 11:20:22;;;;;;;18.15;14.18;;;7.30;99.90;;;;;;4909296;29;20093;-81
2022/12/19 11:22:59;;;;;;;18.35;12.77;;;7.30;99.90;;;;;;4908272;29;20051;-84
2022/12/19 11:25:42;;;;;;;16.88;12.88;;;7.40;99.90;;;;;;4909388;29;20403;-82
2022/12/19 11:28:24;;;;;;;15.40;12.85;;;7.40;99.90;;;;;;4926123;29;20051;-83
2022/12/19 11:31:04;;;;;;;14.88;12.60;;;7.50;99.90;;;;;;4926194;29;20044;-84
2022/12/19 11:33:30;;;;;;;14.48;12.85;;;7.50;99.90;;;;;;4908989;29;20062;-84
2022/12/19 11:35:58;;;;;;;13.30;11.77;;;7.50;99.90;;;;;;4925720;29;20043;-82
2022/12/19 11:38:59;;;;;;;16.17;12.77;;;7.50;99.90;;;;;;4923861;29;20047;-82
2022/12/19 11:41:34;;;;;;;13.73;11.63;;;7.50;99.90;;;;;;4887642;29;20063;-81
2022/12/19 11:44:16;;;;;;;14.93;12.32;;;7.50;99.90;;;;;;4924065;29;20140;-82
2022/12/19 11:46:55;;;;;;;13.25;10.35;;;7.60;99.90;;;;;;4924818;29;20042;-82
2022/12/19 11:49:43;;;;;;;14.95;11.30;;;7.60;99.90;;;;;;4909770;29;20051;-81
2022/12/19 11:52:36;;;;;;;16.35;12.45;;;7.70;99.90;;;;;;4909402;29;20574;-82
2022/12/19 11:55:29;;;;;;;13.73;11.88;;;7.60;99.90;;;;;;4908365;29;20152;-81
2022/12/19 11:57:56;;;;;;;14.90;11.45;;;7.60;99.90;;;;;;4908925;29;20054;-83
2022/12/19 12:00:23;;;;;;;14.00;12.60;;;7.70;99.90;;;;;;4925285;29;20043;-82
2022/12/19 12:03:05;;;;;;;14.02;12.38;;;7.70;99.90;;;;;;4927207;29;20067;-82
2022/12/19 12:05:45;;;;;;;14.95;11.27;;;7.70;99.90;;;;;;4927394;29;20044;-82
2022/12/19 12:08:17;;;;;;;14.50;11.27;;;7.80;99.90;;;;;;4928561;29;20050;-85
2022/12/19 12:10:54;;;;;;;13.82;11.30;;;7.80;99.90;;;;;;4941860;28;20044;-83
2022/12/19 12:13:20;;;;;;;12.65;11.18;;;7.80;99.90;;;;;;4909314;29;20048;-81
2022/12/19 12:16:00;;;;;;;13.63;10.68;;;7.80;99.90;;;;;;4932626;29;20062;-83
2022/12/19 12:18:38;;;;;;;12.93;11.10;;;7.70;99.90;;;;;;4931744;29;20059;-82
2022/12/19 12:21:22;;;;;;;13.55;10.68;;;7.80;99.90;;;;;;4925911;29;20067;-85
2022/12/19 12:24:12;;;;;;;13.55;11.27;;;7.80;99.90;;;;;;4910193;29;20473;-83
2022/12/19 12:27:04;;;;;;;12.98;10.55;;;7.80;99.90;;;;;;4909575;29;20032;-82
2022/12/19 12:29:39;;;;;;;12.10;10.77;;;7.80;99.90;;;;;;4909218;29;20225;-81
2022/12/19 12:32:24;;;;;;;11.27;9.55;;;7.80;99.90;;;;;;4938639;28;20443;-82
2022/12/19 12:35:18;;;;;;;12.70;11.40;;;7.80;99.90;;;;;;4924406;29;20423;-83
2022/12/19 12:38:08;;;;;;;12.40;10.30;;;7.80;99.90;;;;;;4923243;29;20070;-81
2022/12/19 12:41:08;;;;;;;12.55;10.07;;;7.80;99.90;;;;;;4906869;29;20154;-82
2022/12/19 12:43:46;;;;;;;15.15;10.10;;;7.90;99.90;;;;;;4909506;29;20052;-81
2022/12/19 12:46:18;;;;;;;11.63;9.70;;;7.80;99.90;;;;;;4926084;29;21269;-85
2022/12/19 12:48:54;;;;;;;12.23;10.38;;;7.80;99.90;;;;;;4923584;29;20052;-84
2022/12/19 12:51:21;;;;;;;11.15;9.98;;;7.90;99.90;;;;;;4906926;29;20039;-84
2022/12/19 12:53:51;;;;;;;10.88;9.27;;;7.90;99.90;;;;;;4924746;29;20035;-83
2022/12/19 12:56:18;;;;;;;12.68;10.98;;;7.90;99.90;;;;;;4909031;29;20044;-83
2022/12/19 12:58:52;;;;;;;10.75;9.63;;;7.80;99.90;;;;;;4926049;29;20062;-81
2022/12/19 13:01:33;;;;;;;10.00;8.93;;;7.80;99.90;;;;;;4911915;29;20074;-81
2022/12/19 13:04:04;;;;;;;10.57;9.57;;;7.90;99.90;;;;;;4914461;29;20044;-84
2022/12/19 13:06:36;;;;;;;11.75;9.32;;;7.90;99.90;;;;;;4928680;29;20035;-83
2022/12/19 13:09:26;;;;;;;11.18;10.07;;;7.90;99.90;;;;;;4926329;29;20039;-84